sensor_id;sensor_type;location;lat;lon;timestamp;pressure;altitude;pressure_sealevel;temperature;humidity
53340;BME280;46212;50.258;19.062;2024-03-23T00:55:12;97826.25;;;10.47;73.02
53340;BME280;46212;50.258;19.062;2024-03-23T00:57:37;97824.41;;;10.29;74.75
53340;BME280;46212;50.258;19.062;2024-03-23T01:00:04;97819.06;;;10.26;75.35
53340;BME280;46212;50.258;19.062;2024-03-23T01:02:32;97827.94;;;10.30;75.44
53340;BME280;46212;50.258;19.062;2024-03-23T01:04:57;97809.66;;;10.18;75.93
53340;BME280;46212;50.258;19.062;2024-03-23T01:07:22;97806.16;;;10.08;75.64
53340;BME280;46212;50.258;19.062;2024-03-23T01:09:48;97814.84;;;10.16;76.64
53340;BME280;46212;50.258;19.062;2024-03-23T01:12:13;97808.41;;;10.19;76.97
53340;BME280;46212;50.258;19.062;2024-03-23T01:14:38;97815.63;;;10.16;76.85
53340;BME280;46212;50.258;19.062;2024-03-23T01:17:04;97804.22;;;10.23;76.69
53340;BME280;46212;50.258;19.062;2024-03-23T01:19:29;97798.72;;;10.23;76.16
53340;BME280;46212;50.258;19.062;2024-03-23T01:21:54;97805.19;;;10.20;76.58
53340;BME280;46212;50.258;19.062;2024-03-23T01:24:20;97793.47;;;10.25;77.35
53340;BME280;46212;50.258;19.062;2024-03-23T01:26:45;97786.09;;;10.07;77.83
53340;BME280;46212;50.258;19.062;2024-03-23T01:29:11;97791.44;;;10.11;78.90
53340;BME280;46212;50.258;19.062;2024-03-23T01:31:36;97791.44;;;10.11;78.50
53340;BME280;46212;50.258;19.062;2024-03-23T01:34:01;97780.97;;;10.15;77.40
53340;BME280;46212;50.258;19.062;2024-03-23T01:36:28;97785.59;;;10.09;77.97
53340;BME280;46212;50.258;19.062;2024-03-23T01:38:53;97775.59;;;9.97;79.36
53340;BME280;46212;50.258;19.062;2024-03-23T01:41:19;97773.59;;;9.97;79.12
53340;BME280;46212;50.258;19.062;2024-03-23T01:43:45;97759.97;;;9.79;79.54
53340;BME280;46212;50.258;19.062;2024-03-23T01:46:11;97777.13;;;9.74;79.69
53340;BME280;46212;50.258;19.062;2024-03-23T01:48:36;97771.16;;;9.76;78.90
53340;BME280;46212;50.258;19.062;2024-03-23T01:51:03;97772.28;;;9.69;79.56
53340;BME280;46212;50.258;19.062;2024-03-23T01:53:28;97772.66;;;9.77;78.75
53340;BME280;46212;50.258;19.062;2024-03-23T01:55:54;97755.38;;;9.76;78.70
53340;BME280;46212;50.258;19.062;2024-03-23T01:58:22;97761.34;;;9.75;79.04
53340;BME280;46212;50.258;19.062;2024-03-23T02:00:47;97755.06;;;9.74;78.74
53340;BME280;46212;50.258;19.062;2024-03-23T02:05:49;97757.91;;;9.65;79.75
53340;BME280;46212;50.258;19.062;2024-03-23T02:08:14;97739.13;;;9.54;80.52
53340;BME280;46212;50.258;19.062;2024-03-23T02:10:40;97755.50;;;9.58;80.81
53340;BME280;46212;50.258;19.062;2024-03-23T02:13:05;97737.44;;;9.57;80.90
53340;BME280;46212;50.258;19.062;2024-03-23T02:15:31;97738.25;;;9.48;81.02
53340;BME280;46212;50.258;19.062;2024-03-23T02:17:56;97743.25;;;9.59;80.88
53340;BME280;46212;50.258;19.062;2024-03-23T02:20:21;97731.63;;;9.55;79.61
53340;BME280;46212;50.258;19.062;2024-03-23T02:22:51;97727.66;;;9.56;78.82
53340;BME280;46212;50.258;19.062;2024-03-23T02:25:17;97738.66;;;9.56;78.86
53340;BME280;46212;50.258;19.062;2024-03-23T02:27:42;97712.47;;;9.60;78.45
53340;BME280;46212;50.258;19.062;2024-03-23T02:30:08;97718.34;;;9.92;77.90
53340;BME280;46212;50.258;19.062;2024-03-23T02:32:33;97720.41;;;10.50;75.14
53340;BME280;46212;50.258;19.062;2024-03-23T02:34:58;97726.03;;;10.41;75.47
53340;BME280;46212;50.258;19.062;2024-03-23T02:37:24;97745.50;;;9.84;79.45
53340;BME280;46212;50.258;19.062;2024-03-23T02:39:49;97731.13;;;9.80;80.15
53340;BME280;46212;50.258;19.062;2024-03-23T02:42:15;97715.00;;;9.64;80.38
53340;BME280;46212;50.258;19.062;2024-03-23T02:44:43;97702.56;;;9.54;81.13
53340;BME280;46212;50.258;19.062;2024-03-23T02:47:08;97707.59;;;9.55;82.20
53340;BME280;46212;50.258;19.062;2024-03-23T02:49:33;97693.94;;;9.37;83.32
53340;BME280;46212;50.258;19.062;2024-03-23T02:51:59;97708.88;;;9.45;83.39
53340;BME280;46212;50.258;19.062;2024-03-23T02:54:24;97693.81;;;9.55;83.09
53340;BME280;46212;50.258;19.062;2024-03-23T02:56:49;97689.66;;;9.60;83.09
53340;BME280;46212;50.258;19.062;2024-03-23T02:59:15;97695.28;;;9.80;81.93
53340;BME280;46212;50.258;19.062;2024-03-23T03:01:40;97698.59;;;9.70;82.29
53340;BME280;46212;50.258;19.062;2024-03-23T03:04:05;97696.19;;;9.63;82.43
53340;BME280;46212;50.258;19.062;2024-03-23T03:06:31;97684.34;;;9.71;82.48
53340;BME280;46212;50.258;19.062;2024-03-23T03:08:56;97684.75;;;9.79;83.02
53340;BME280;46212;50.258;19.062;2024-03-23T03:11:22;97687.16;;;9.62;84.01
53340;BME280;46212;50.258;19.062;2024-03-23T03:13:47;97690.94;;;9.50;84.22
53340;BME280;46212;50.258;19.062;2024-03-23T03:16:13;97690.06;;;9.44;84.27
53340;BME280;46212;50.258;19.062;2024-03-23T03:18:38;97687.91;;;9.48;84.86
53340;BME280;46212;50.258;19.062;2024-03-23T03:21:06;97686.13;;;9.36;85.40
53340;BME280;46212;50.258;19.062;2024-03-23T03:23:38;97681.81;;;9.44;84.74
53340;BME280;46212;50.258;19.062;2024-03-23T03:26:04;97679.91;;;9.50;83.96
53340;BME280;46212;50.258;19.062;2024-03-23T03:28:31;97678.03;;;9.56;83.15
53340;BME280;46212;50.258;19.062;2024-03-23T03:30:58;97669.34;;;9.48;83.31
53340;BME280;46212;50.258;19.062;2024-03-23T03:33:23;97669.31;;;9.34;84.52
53340;BME280;46212;50.258;19.062;2024-03-23T03:35:48;97633.66;;;9.30;86.44
53340;BME280;46212;50.258;19.062;2024-03-23T03:38:14;97638.28;;;9.48;86.82
53340;BME280;46212;50.258;19.062;2024-03-23T03:40:41;97633.84;;;9.50;85.59
53340;BME280;46212;50.258;19.062;2024-03-23T03:43:06;97644.94;;;9.41;86.89
53340;BME280;46212;50.258;19.062;2024-03-23T03:45:32;97659.19;;;9.16;90.10
53340;BME280;46212;50.258;19.062;2024-03-23T03:47:57;97656.72;;;9.18;89.46
53340;BME280;46212;50.258;19.062;2024-03-23T03:50:24;97645.66;;;9.03;89.89
53340;BME280;46212;50.258;19.062;2024-03-23T03:52:49;97650.50;;;9.08;90.55
53340;BME280;46212;50.258;19.062;2024-03-23T03:55:15;97654.84;;;9.24;90.19
53340;BME280;46212;50.258;19.062;2024-03-23T03:57:41;97639.94;;;9.07;89.82
53340;BME280;46212;50.258;19.062;2024-03-23T04:00:07;97644.22;;;9.08;89.20
53340;BME280;46212;50.258;19.062;2024-03-23T04:02:39;97648.03;;;9.11;88.08
53340;BME280;46212;50.258;19.062;2024-03-23T04:05:05;97662.75;;;9.07;86.85
53340;BME280;46212;50.258;19.062;2024-03-23T04:07:30;97624.00;;;9.35;86.77
53340;BME280;46212;50.258;19.062;2024-03-23T04:09:56;97652.13;;;9.39;89.28
53340;BME280;46212;50.258;19.062;2024-03-23T04:12:21;97657.88;;;9.26;90.63
53340;BME280;46212;50.258;19.062;2024-03-23T04:14:46;97654.84;;;9.24;89.83
53340;BME280;46212;50.258;19.062;2024-03-23T04:17:12;97632.91;;;9.30;90.13
53340;BME280;46212;50.258;19.062;2024-03-23T04:19:37;97635.44;;;9.19;89.57
53340;BME280;46212;50.258;19.062;2024-03-23T04:22:03;97630.53;;;9.23;90.25
53340;BME280;46212;50.258;19.062;2024-03-23T04:24:29;97607.38;;;9.05;90.85
53340;BME280;46212;50.258;19.062;2024-03-23T04:26:54;97621.38;;;9.17;92.25
53340;BME280;46212;50.258;19.062;2024-03-23T04:29:20;97617.88;;;9.16;92.46
53340;BME280;46212;50.258;19.062;2024-03-23T04:31:45;97607.59;;;9.17;92.49
53340;BME280;46212;50.258;19.062;2024-03-23T04:34:11;97611.47;;;9.10;93.29
53340;BME280;46212;50.258;19.062;2024-03-23T04:36:36;97594.28;;;9.00;93.99
53340;BME280;46212;50.258;19.062;2024-03-23T04:39:02;97589.38;;;8.95;95.33
53340;BME280;46212;50.258;19.062;2024-03-23T04:41:27;97579.56;;;9.03;95.76
53340;BME280;46212;50.258;19.062;2024-03-23T04:43:52;97585.75;;;8.89;95.73
53340;BME280;46212;50.258;19.062;2024-03-23T04:46:18;97593.69;;;8.96;96.65
53340;BME280;46212;50.258;19.062;2024-03-23T04:48:43;97595.59;;;9.05;95.95
53340;BME280;46212;50.258;19.062;2024-03-23T04:51:10;97580.75;;;8.88;95.85
53340;BME280;46212;50.258;19.062;2024-03-23T04:53:38;97584.72;;;8.87;96.81
53340;BME280;46212;50.258;19.062;2024-03-23T04:56:03;97584.81;;;8.92;96.69
53340;BME280;46212;50.258;19.062;2024-03-23T04:58:29;97575.03;;;8.91;97.19
53340;BME280;46212;50.258;19.062;2024-03-23T05:00:55;97568.97;;;8.87;97.41
53340;BME280;46212;50.258;19.062;2024-03-23T05:03:21;97586.75;;;9.01;97.68
53340;BME280;46212;50.258;19.062;2024-03-23T05:05:50;97588.22;;;8.87;96.91
53340;BME280;46212;50.258;19.062;2024-03-23T05:08:16;97572.22;;;8.77;99.59
53340;BME280;46212;50.258;19.062;2024-03-23T05:10:45;97594.44;;;8.97;99.57
53340;BME280;46212;50.258;19.062;2024-03-23T05:13:11;97579.84;;;9.05;99.14
53340;BME280;46212;50.258;19.062;2024-03-23T05:15:37;97588.31;;;9.17;98.91
53340;BME280;46212;50.258;19.062;2024-03-23T05:18:03;97580.28;;;9.28;99.07
53340;BME280;46212;50.258;19.062;2024-03-23T05:20:30;97573.03;;;9.16;98.69
53340;BME280;46212;50.258;19.062;2024-03-23T05:22:55;97578.38;;;9.19;99.04
53340;BME280;46212;50.258;19.062;2024-03-23T05:25:21;97564.94;;;9.12;97.35
53340;BME280;46212;50.258;19.062;2024-03-23T05:27:46;97569.78;;;9.17;98.88
53340;BME280;46212;50.258;19.062;2024-03-23T05:30:12;97567.16;;;9.23;98.94
53340;BME280;46212;50.258;19.062;2024-03-23T05:32:38;97566.50;;;9.28;97.53
53340;BME280;46212;50.258;19.062;2024-03-23T05:35:06;97553.00;;;9.30;97.18
53340;BME280;46212;50.258;19.062;2024-03-23T05:37:32;97549.88;;;9.22;94.13
53340;BME280;46212;50.258;19.062;2024-03-23T05:39:59;97571.66;;;9.35;91.35
53340;BME280;46212;50.258;19.062;2024-03-23T05:42:25;97545.78;;;9.18;92.45
53340;BME280;46212;50.258;19.062;2024-03-23T05:44:50;97556.53;;;9.30;91.78
53340;BME280;46212;50.258;19.062;2024-03-23T05:47:15;97541.13;;;9.24;93.82
53340;BME280;46212;50.258;19.062;2024-03-23T05:49:42;97551.69;;;9.25;95.00
53340;BME280;46212;50.258;19.062;2024-03-23T05:52:11;97546.72;;;9.15;94.72
53340;BME280;46212;50.258;19.062;2024-03-23T05:54:36;97552.66;;;9.37;93.96
53340;BME280;46212;50.258;19.062;2024-03-23T05:57:02;97558.38;;;9.48;91.75
53340;BME280;46212;50.258;19.062;2024-03-23T05:59:28;97559.41;;;9.50;91.16
53340;BME280;46212;50.258;19.062;2024-03-23T06:01:54;97550.94;;;9.39;91.32
53340;BME280;46212;50.258;19.062;2024-03-23T06:04:19;97539.16;;;9.39;90.86
53340;BME280;46212;50.258;19.062;2024-03-23T06:06:46;97541.44;;;9.40;92.04
53340;BME280;46212;50.258;19.062;2024-03-23T06:09:11;97527.97;;;9.57;91.41
53340;BME280;46212;50.258;19.062;2024-03-23T06:11:37;97516.19;;;9.56;90.17
53340;BME280;46212;50.258;19.062;2024-03-23T06:14:02;97516.53;;;9.64;89.88
53340;BME280;46212;50.258;19.062;2024-03-23T06:16:28;97514.66;;;9.70;89.40
53340;BME280;46212;50.258;19.062;2024-03-23T06:18:53;97497.81;;;9.83;88.41
53340;BME280;46212;50.258;19.062;2024-03-23T06:21:20;97508.03;;;10.11;86.72
53340;BME280;46212;50.258;19.062;2024-03-23T06:23:45;97500.03;;;10.28;84.81
53340;BME280;46212;50.258;19.062;2024-03-23T06:26:19;97510.47;;;10.39;84.09
53340;BME280;46212;50.258;19.062;2024-03-23T06:28:46;97505.66;;;10.19;84.93
53340;BME280;46212;50.258;19.062;2024-03-23T06:31:12;97512.97;;;10.22;85.26
53340;BME280;46212;50.258;19.062;2024-03-23T06:33:37;97508.06;;;10.46;84.67
53340;BME280;46212;50.258;19.062;2024-03-23T06:36:04;97483.25;;;10.32;84.14
53340;BME280;46212;50.258;19.062;2024-03-23T06:38:30;97491.78;;;10.48;84.20
53340;BME280;46212;50.258;19.062;2024-03-23T06:40:55;97498.13;;;10.54;84.45
53340;BME280;46212;50.258;19.062;2024-03-23T06:43:21;97488.06;;;10.72;83.66
53340;BME280;46212;50.258;19.062;2024-03-23T06:45:55;97505.66;;;10.74;83.07
53340;BME280;46212;50.258;19.062;2024-03-23T06:48:21;97494.63;;;10.74;83.86
53340;BME280;46212;50.258;19.062;2024-03-23T06:50:47;97501.66;;;10.95;82.90
53340;BME280;46212;50.258;19.062;2024-03-23T06:53:13;97511.78;;;11.04;81.06
53340;BME280;46212;50.258;19.062;2024-03-23T06:55:39;97494.72;;;11.26;79.80
53340;BME280;46212;50.258;19.062;2024-03-23T06:58:04;97474.91;;;11.33;79.56
53340;BME280;46212;50.258;19.062;2024-03-23T07:00:30;97504.63;;;11.38;79.23
53340;BME280;46212;50.258;19.062;2024-03-23T07:02:55;97489.91;;;11.26;79.07
53340;BME280;46212;50.258;19.062;2024-03-23T07:05:21;97495.88;;;11.45;78.71
53340;BME280;46212;50.258;19.062;2024-03-23T07:07:46;97495.44;;;11.78;76.81
53340;BME280;46212;50.258;19.062;2024-03-23T07:10:11;97481.94;;;11.85;75.92
53340;BME280;46212;50.258;19.062;2024-03-23T07:12:37;97490.28;;;11.91;74.53
53340;BME280;46212;50.258;19.062;2024-03-23T07:15:02;97499.34;;;11.91;74.31
53340;BME280;46212;50.258;19.062;2024-03-23T07:17:28;97496.13;;;11.98;74.33
53340;BME280;46212;50.258;19.062;2024-03-23T07:19:53;97499.31;;;11.86;73.84
53340;BME280;46212;50.258;19.062;2024-03-23T07:22:18;97482.41;;;12.15;72.79
53340;BME280;46212;50.258;19.062;2024-03-23T07:24:44;97476.66;;;12.24;71.98
53340;BME280;46212;50.258;19.062;2024-03-23T07:27:09;97473.59;;;12.11;72.46
53340;BME280;46212;50.258;19.062;2024-03-23T07:29:38;97477.16;;;12.22;72.18
53340;BME280;46212;50.258;19.062;2024-03-23T07:32:04;97475.94;;;12.23;72.10
53340;BME280;46212;50.258;19.062;2024-03-23T07:34:29;97471.88;;;12.24;72.33
53340;BME280;46212;50.258;19.062;2024-03-23T07:36:55;97465.56;;;12.18;71.76
53340;BME280;46212;50.258;19.062;2024-03-23T07:39:20;97465.34;;;12.27;71.60
53340;BME280;46212;50.258;19.062;2024-03-23T07:41:45;97476.38;;;12.59;69.67
53340;BME280;46212;50.258;19.062;2024-03-23T07:44:11;97480.50;;;12.80;69.71
53340;BME280;46212;50.258;19.062;2024-03-23T07:46:36;97460.00;;;12.61;70.05
53340;BME280;46212;50.258;19.062;2024-03-23T07:49:04;97484.56;;;12.96;69.02
53340;BME280;46212;50.258;19.062;2024-03-23T07:51:29;97464.31;;;12.62;69.60
53340;BME280;46212;50.258;19.062;2024-03-23T07:53:55;97445.47;;;12.71;68.84
53340;BME280;46212;50.258;19.062;2024-03-23T07:56:20;97462.00;;;12.55;69.20
53340;BME280;46212;50.258;19.062;2024-03-23T07:58:46;97453.19;;;12.56;69.48
53340;BME280;46212;50.258;19.062;2024-03-23T08:01:15;97456.81;;;12.79;69.23
53340;BME280;46212;50.258;19.062;2024-03-23T08:03:42;97436.69;;;12.90;68.94
53340;BME280;46212;50.258;19.062;2024-03-23T08:06:18;97418.84;;;13.02;68.99
53340;BME280;46212;50.258;19.062;2024-03-23T08:08:55;97426.91;;;13.05;69.30
53340;BME280;46212;50.258;19.062;2024-03-23T08:11:28;97421.06;;;12.87;69.20
53340;BME280;46212;50.258;19.062;2024-03-23T08:13:54;97415.59;;;13.09;68.14
53340;BME280;46212;50.258;19.062;2024-03-23T08:16:20;97432.25;;;13.14;68.87
53340;BME280;46212;50.258;19.062;2024-03-23T08:18:46;97414.13;;;13.41;67.78
53340;BME280;46212;50.258;19.062;2024-03-23T08:21:12;97401.00;;;13.42;67.71
53340;BME280;46212;50.258;19.062;2024-03-23T08:23:37;97413.84;;;13.22;68.07
53340;BME280;46212;50.258;19.062;2024-03-23T08:26:10;97416.63;;;13.45;65.80
53340;BME280;46212;50.258;19.062;2024-03-23T08:28:36;97392.19;;;13.32;65.57
53340;BME280;46212;50.258;19.062;2024-03-23T08:31:08;97393.44;;;13.59;63.38
53340;BME280;46212;50.258;19.062;2024-03-23T08:33:34;97396.97;;;13.65;63.63
53340;BME280;46212;50.258;19.062;2024-03-23T08:36:01;97389.66;;;13.78;62.06
53340;BME280;46212;50.258;19.062;2024-03-23T08:38:27;97387.63;;;13.90;61.44
53340;BME280;46212;50.258;19.062;2024-03-23T08:43:22;97376.97;;;14.05;61.74
53340;BME280;46212;50.258;19.062;2024-03-23T08:45:48;97355.81;;;13.91;61.65
53340;BME280;46212;50.258;19.062;2024-03-23T08:48:13;97347.47;;;14.02;61.88
53340;BME280;46212;50.258;19.062;2024-03-23T08:50:38;97350.97;;;14.14;60.38
53340;BME280;46212;50.258;19.062;2024-03-23T08:53:04;97349.25;;;14.00;60.67
53340;BME280;46212;50.258;19.062;2024-03-23T08:55:29;97348.19;;;14.08;61.77
53340;BME280;46212;50.258;19.062;2024-03-23T08:57:55;97341.06;;;14.24;59.76
53340;BME280;46212;50.258;19.062;2024-03-23T09:00:21;97335.22;;;14.44;59.16
53340;BME280;46212;50.258;19.062;2024-03-23T09:02:50;97343.13;;;14.75;58.47
53340;BME280;46212;50.258;19.062;2024-03-23T09:05:15;97325.19;;;14.76;57.61
53340;BME280;46212;50.258;19.062;2024-03-23T09:07:40;97325.88;;;14.88;57.66
53340;BME280;46212;50.258;19.062;2024-03-23T09:10:07;97322.16;;;15.10;54.87
53340;BME280;46212;50.258;19.062;2024-03-23T09:12:32;97321.50;;;14.98;54.64
53340;BME280;46212;50.258;19.062;2024-03-23T09:14:58;97311.56;;;14.73;55.61
53340;BME280;46212;50.258;19.062;2024-03-23T09:17:23;97312.88;;;15.02;55.83
53340;BME280;46212;50.258;19.062;2024-03-23T09:19:49;97302.69;;;15.10;54.63
53340;BME280;46212;50.258;19.062;2024-03-23T09:22:14;97295.03;;;15.21;54.10
53340;BME280;46212;50.258;19.062;2024-03-23T09:24:40;97315.56;;;15.18;51.54
53340;BME280;46212;50.258;19.062;2024-03-23T09:27:05;97304.38;;;15.24;51.21
53340;BME280;46212;50.258;19.062;2024-03-23T09:29:31;97286.31;;;15.36;50.94
53340;BME280;46212;50.258;19.062;2024-03-23T09:31:56;97287.63;;;15.59;50.31
53340;BME280;46212;50.258;19.062;2024-03-23T09:34:22;97268.97;;;15.24;51.29
53340;BME280;46212;50.258;19.062;2024-03-23T09:36:51;97251.06;;;15.50;51.14
53340;BME280;46212;50.258;19.062;2024-03-23T09:39:17;97257.53;;;15.58;49.87
53340;BME280;46212;50.258;19.062;2024-03-23T09:41:42;97237.69;;;15.42;50.87
53340;BME280;46212;50.258;19.062;2024-03-23T09:44:08;97236.72;;;15.64;50.07
53340;BME280;46212;50.258;19.062;2024-03-23T09:46:33;97243.53;;;15.69;49.36
53340;BME280;46212;50.258;19.062;2024-03-23T09:49:02;97250.41;;;15.62;50.15
53340;BME280;46212;50.258;19.062;2024-03-23T09:51:30;97226.88;;;15.63;49.08
53340;BME280;46212;50.258;19.062;2024-03-23T09:53:55;97233.69;;;15.86;48.22
53340;BME280;46212;50.258;19.062;2024-03-23T09:56:21;97222.16;;;15.77;48.81
53340;BME280;46212;50.258;19.062;2024-03-23T09:58:47;97224.44;;;15.78;48.97
53340;BME280;46212;50.258;19.062;2024-03-23T10:01:12;97214.13;;;15.92;49.41
53340;BME280;46212;50.258;19.062;2024-03-23T10:03:44;97208.25;;;16.14;48.36
53340;BME280;46212;50.258;19.062;2024-03-23T10:06:10;97186.06;;;16.09;48.07
53340;BME280;46212;50.258;19.062;2024-03-23T10:08:36;97204.06;;;16.26;48.07
53340;BME280;46212;50.258;19.062;2024-03-23T10:11:22;97188.16;;;16.21;48.04
53340;BME280;46212;50.258;19.062;2024-03-23T10:13:47;97179.38;;;16.36;48.15
53340;BME280;46212;50.258;19.062;2024-03-23T10:16:24;97168.94;;;16.36;47.54
53340;BME280;46212;50.258;19.062;2024-03-23T10:18:49;97180.03;;;16.61;47.26
53340;BME280;46212;50.258;19.062;2024-03-23T10:21:15;97178.69;;;16.80;46.45
53340;BME280;46212;50.258;19.062;2024-03-23T10:23:42;97170.88;;;16.92;44.99
53340;BME280;46212;50.258;19.062;2024-03-23T10:26:16;97152.03;;;17.11;45.45
53340;BME280;46212;50.258;19.062;2024-03-23T10:28:58;97162.34;;;17.42;44.12
53340;BME280;46212;50.258;19.062;2024-03-23T10:31:29;97158.19;;;17.62;43.94
53340;BME280;46212;50.258;19.062;2024-03-23T10:33:55;97147.31;;;17.19;44.52
53340;BME280;46212;50.258;19.062;2024-03-23T10:36:22;97147.75;;;17.36;43.66
53340;BME280;46212;50.258;19.062;2024-03-23T10:38:49;97145.41;;;17.53;43.58
53340;BME280;46212;50.258;19.062;2024-03-23T10:41:15;97141.22;;;17.47;44.19
53340;BME280;46212;50.258;19.062;2024-03-23T10:43:43;97131.34;;;17.46;43.50
53340;BME280;46212;50.258;19.062;2024-03-23T10:46:09;97132.63;;;17.58;43.74
53340;BME280;46212;50.258;19.062;2024-03-23T10:48:35;97134.97;;;17.54;43.53
53340;BME280;46212;50.258;19.062;2024-03-23T10:51:01;97134.66;;;17.58;43.47
53340;BME280;46212;50.258;19.062;2024-03-23T10:53:27;97116.19;;;17.41;43.31
53340;BME280;46212;50.258;19.062;2024-03-23T10:55:55;97117.47;;;17.67;43.26
53340;BME280;46212;50.258;19.062;2024-03-23T10:58:29;97101.00;;;17.89;43.03
53340;BME280;46212;50.258;19.062;2024-03-23T11:00:56;97103.63;;;17.74;43.32
53340;BME280;46212;50.258;19.062;2024-03-23T11:03:34;97101.38;;;17.46;43.43
53340;BME280;46212;50.258;19.062;2024-03-23T11:06:01;97084.06;;;17.74;43.06
53340;BME280;46212;50.258;19.062;2024-03-23T11:11:19;97073.09;;;18.10;42.29
53340;BME280;46212;50.258;19.062;2024-03-23T11:13:48;97052.31;;;18.19;41.81
53340;BME280;46212;50.258;19.062;2024-03-23T11:16:21;97058.13;;;18.41;40.65
53340;BME280;46212;50.258;19.062;2024-03-23T11:18:53;97039.66;;;18.38;38.78
53340;BME280;46212;50.258;19.062;2024-03-23T11:21:53;97040.44;;;18.46;38.50
53340;BME280;46212;50.258;19.062;2024-03-23T11:24:22;97012.50;;;18.67;38.29
53340;BME280;46212;50.258;19.062;2024-03-23T11:26:48;97001.94;;;18.81;38.04
53340;BME280;46212;50.258;19.062;2024-03-23T11:29:15;96995.25;;;18.84;37.88
53340;BME280;46212;50.258;19.062;2024-03-23T11:31:51;97004.22;;;19.18;36.84
53340;BME280;46212;50.258;19.062;2024-03-23T11:34:18;97008.53;;;19.27;36.43
53340;BME280;46212;50.258;19.062;2024-03-23T11:36:44;96995.94;;;19.41;36.40
53340;BME280;46212;50.258;19.062;2024-03-23T11:39:16;96972.25;;;19.42;35.69
53340;BME280;46212;50.258;19.062;2024-03-23T11:41:52;96971.56;;;19.56;35.66
53340;BME280;46212;50.258;19.062;2024-03-23T11:44:19;96959.00;;;19.42;35.42
53340;BME280;46212;50.258;19.062;2024-03-23T11:46:46;96968.69;;;19.41;36.42
53340;BME280;46212;50.258;19.062;2024-03-23T11:51:50;96932.72;;;19.53;36.38
53340;BME280;46212;50.258;19.062;2024-03-23T11:54:16;96937.22;;;19.71;35.55
53340;BME280;46212;50.258;19.062;2024-03-23T11:57:03;96924.91;;;19.74;35.59
53340;BME280;46212;50.258;19.062;2024-03-23T11:59:36;96932.41;;;19.94;35.03
53340;BME280;46212;50.258;19.062;2024-03-23T12:02:10;96910.91;;;19.74;35.11
53340;BME280;46212;50.258;19.062;2024-03-23T12:04:36;96920.81;;;20.05;34.98
53340;BME280;46212;50.258;19.062;2024-03-23T12:07:16;96914.63;;;19.92;33.91
53340;BME280;46212;50.258;19.062;2024-03-23T12:09:44;96877.09;;;20.10;34.74
53340;BME280;46212;50.258;19.062;2024-03-23T12:12:14;96895.94;;;20.47;34.11
53340;BME280;46212;50.258;19.062;2024-03-23T12:14:44;96861.00;;;20.33;33.86
53340;BME280;46212;50.258;19.062;2024-03-23T12:17:14;96884.34;;;20.51;33.90
53340;BME280;46212;50.258;19.062;2024-03-23T12:19:41;96890.28;;;20.70;34.39
53340;BME280;46212;50.258;19.062;2024-03-23T12:22:07;96884.50;;;20.60;33.78
53340;BME280;46212;50.258;19.062;2024-03-23T12:24:33;96861.91;;;20.98;33.13
53340;BME280;46212;50.258;19.062;2024-03-23T12:27:04;96852.78;;;20.90;33.71
53340;BME280;46212;50.258;19.062;2024-03-23T12:29:31;96850.81;;;21.15;33.66
53340;BME280;46212;50.258;19.062;2024-03-23T12:31:59;96833.13;;;21.30;32.92
53340;BME280;46212;50.258;19.062;2024-03-23T12:34:25;96855.09;;;21.16;32.38
53340;BME280;46212;50.258;19.062;2024-03-23T12:36:51;96832.91;;;21.36;30.79
53340;BME280;46212;50.258;19.062;2024-03-23T12:39:16;96808.94;;;21.35;31.01
53340;BME280;46212;50.258;19.062;2024-03-23T12:41:42;96817.19;;;21.82;29.71
53340;BME280;46212;50.258;19.062;2024-03-23T12:44:07;96815.59;;;21.96;29.64
53340;BME280;46212;50.258;19.062;2024-03-23T12:46:36;96801.16;;;22.00;29.98
53340;BME280;46212;50.258;19.062;2024-03-23T12:49:02;96827.41;;;21.70;29.93
53340;BME280;46212;50.258;19.062;2024-03-23T12:51:28;96815.94;;;21.76;29.96
53340;BME280;46212;50.258;19.062;2024-03-23T12:53:53;96782.97;;;21.76;29.85
53340;BME280;46212;50.258;19.062;2024-03-23T12:56:19;96785.84;;;22.10;29.05
53340;BME280;46212;50.258;19.062;2024-03-23T12:58:44;96772.13;;;21.97;29.54
53340;BME280;46212;50.258;19.062;2024-03-23T13:03:35;96762.44;;;23.86;27.62
53340;BME280;46212;50.258;19.062;2024-03-23T13:06:00;96764.88;;;24.75;24.83
53340;BME280;46212;50.258;19.062;2024-03-23T13:08:26;96750.47;;;24.52;24.11
53340;BME280;46212;50.258;19.062;2024-03-23T13:10:52;96771.81;;;25.03;23.33
53340;BME280;46212;50.258;19.062;2024-03-23T13:13:17;96776.38;;;26.10;22.12
53340;BME280;46212;50.258;19.062;2024-03-23T13:15:49;96773.56;;;25.58;22.76
53340;BME280;46212;50.258;19.062;2024-03-23T13:18:15;96764.25;;;24.77;24.07
53340;BME280;46212;50.258;19.062;2024-03-23T13:20:40;96773.34;;;24.37;25.00
53340;BME280;46212;50.258;19.062;2024-03-23T13:23:05;96755.38;;;23.21;26.12
53340;BME280;46212;50.258;19.062;2024-03-23T13:25:31;96781.53;;;21.92;27.40
53340;BME280;46212;50.258;19.062;2024-03-23T13:27:56;96771.13;;;21.36;28.30
53340;BME280;46212;50.258;19.062;2024-03-23T13:30:21;96764.19;;;20.80;29.82
53340;BME280;46212;50.258;19.062;2024-03-23T13:32:47;96796.88;;;20.37;30.36
53340;BME280;46212;50.258;19.062;2024-03-23T13:35:12;96770.63;;;19.95;31.18
53340;BME280;46212;50.258;19.062;2024-03-23T13:37:38;96771.19;;;19.86;31.74
53340;BME280;46212;50.258;19.062;2024-03-23T13:40:03;96779.44;;;19.53;32.20
53340;BME280;46212;50.258;19.062;2024-03-23T13:42:29;96801.44;;;19.34;32.96
53340;BME280;46212;50.258;19.062;2024-03-23T13:44:54;96835.56;;;19.25;32.98
53340;BME280;46212;50.258;19.062;2024-03-23T13:47:20;96896.88;;;19.00;33.89
53340;BME280;46212;50.258;19.062;2024-03-23T13:49:45;96972.19;;;17.93;44.81
53340;BME280;46212;50.258;19.062;2024-03-23T13:52:11;97004.66;;;16.89;58.29
53340;BME280;46212;50.258;19.062;2024-03-23T13:54:37;96999.00;;;15.41;70.71
53340;BME280;46212;50.258;19.062;2024-03-23T13:57:02;97005.53;;;14.33;76.52